createdAt,value
2023-06-11T00:00:46.851Z,17.34
2023-06-11T00:01:48.422Z,17.36
2023-06-11T00:02:51.062Z,17.32
2023-06-11T00:03:52.741Z,17.27
2023-06-11T00:04:54.513Z,17.24
2023-06-11T00:05:56.152Z,17.24
2023-06-11T00:06:58.077Z,17.26
2023-06-11T00:07:59.661Z,17.31
2023-06-11T00:09:01.287Z,17.28
2023-06-11T00:10:03.309Z,17.20
2023-06-11T00:11:04.861Z,17.20
2023-06-11T00:12:07.133Z,17.18
2023-06-11T00:13:08.749Z,17.19
2023-06-11T00:14:11.335Z,17.17
2023-06-11T00:15:13.179Z,17.13
2023-06-11T00:16:15.529Z,17.13
2023-06-11T00:17:17.268Z,17.08
2023-06-11T00:18:18.963Z,17.07
2023-06-11T00:19:20.608Z,17.03
2023-06-11T00:20:22.321Z,17.03
2023-06-11T00:21:23.992Z,17.04
2023-06-11T00:22:25.557Z,17.03
2023-06-11T00:23:27.123Z,17.03
2023-06-11T00:24:28.748Z,17.05
2023-06-11T00:25:30.423Z,17.04
2023-06-11T00:26:31.969Z,17.02
2023-06-11T00:27:37.420Z,16.99
2023-06-11T00:28:39.145Z,16.94
2023-06-11T00:29:40.708Z,16.91
2023-06-11T00:30:42.313Z,16.89
2023-06-11T00:31:43.973Z,16.89
2023-06-11T00:32:45.674Z,16.87
2023-06-11T00:33:47.360Z,16.92
2023-06-11T00:34:48.952Z,16.95
2023-06-11T00:35:50.545Z,16.93
2023-06-11T00:36:52.528Z,16.90
2023-06-11T00:37:54.184Z,16.93
2023-06-11T00:38:55.750Z,16.94
2023-06-11T00:39:57.387Z,16.90
2023-06-11T00:41:00.157Z,16.91
2023-06-11T00:42:01.823Z,16.85
2023-06-11T00:43:03.471Z,16.81
2023-06-11T00:44:05.405Z,16.79
2023-06-11T00:45:07.937Z,16.79
2023-06-11T00:46:09.688Z,16.80
2023-06-11T00:47:11.405Z,16.78
2023-06-11T00:48:13.023Z,16.82
2023-06-11T00:49:18.630Z,16.79
2023-06-11T00:50:20.516Z,16.77
2023-06-11T00:51:22.855Z,16.78
2023-06-11T00:52:24.427Z,16.73
2023-06-11T00:53:26.238Z,16.69
2023-06-11T00:54:27.806Z,16.71
2023-06-11T00:55:29.425Z,16.68
2023-06-11T00:56:31.408Z,16.69
2023-06-11T00:57:33.027Z,16.72
2023-06-11T00:58:34.701Z,16.74
2023-06-11T00:59:36.798Z,16.70
2023-06-11T01:00:38.363Z,16.70
2023-06-11T01:01:49.479Z,16.66
2023-06-11T01:03:00.740Z,16.65
2023-06-11T01:04:04.688Z,16.63
2023-06-11T01:05:08.747Z,16.65
2023-06-11T01:06:13.669Z,16.65
2023-06-11T01:07:17.645Z,16.61
2023-06-11T01:08:21.580Z,16.57
2023-06-11T01:09:28.620Z,16.58
2023-06-11T01:10:30.310Z,16.58
2023-06-11T01:11:32.656Z,16.61
2023-06-11T01:12:36.188Z,16.51
2023-06-11T01:13:38.107Z,16.51
2023-06-11T01:14:40.560Z,16.52
2023-06-11T01:15:42.172Z,16.52
2023-06-11T01:16:49.837Z,16.50
2023-06-11T01:17:59.900Z,16.49
2023-06-11T01:19:27.168Z,16.46
2023-06-11T01:20:33.774Z,16.41
2023-06-11T01:21:47.371Z,16.39
2023-06-11T01:23:16.954Z,16.38
2023-06-11T01:24:22.557Z,16.33
2023-06-11T01:25:42.344Z,16.38
2023-06-11T01:26:44.028Z,16.37
2023-06-11T01:28:02.714Z,16.36
2023-06-11T01:29:09.250Z,16.33
2023-06-11T01:30:12.875Z,16.32
2023-06-11T01:31:16.845Z,16.23
2023-06-11T01:32:23.001Z,16.25
2023-06-11T01:33:25.180Z,16.25
2023-06-11T01:34:28.782Z,16.24
2023-06-11T01:35:30.900Z,16.24
2023-06-11T01:36:33.194Z,16.25
2023-06-11T01:37:34.789Z,16.27
2023-06-11T01:38:36.720Z,16.22
2023-06-11T01:39:39.179Z,16.25
2023-06-11T01:40:53.582Z,16.24
2023-06-11T01:41:55.219Z,16.26
2023-06-11T01:42:57.339Z,16.25
2023-06-11T01:43:59.073Z,16.23
2023-06-11T01:45:00.737Z,16.24
2023-06-11T01:46:04.582Z,16.22
2023-06-11T01:47:06.739Z,16.19
2023-06-11T01:48:08.473Z,16.17
2023-06-11T01:49:12.101Z,16.15
2023-06-11T01:50:14.463Z,16.16
2023-06-11T01:51:16.252Z,16.14
2023-06-11T01:52:17.911Z,16.12
2023-06-11T01:53:19.570Z,16.07
2023-06-11T01:54:21.150Z,16.06
2023-06-11T01:55:22.760Z,16.07
2023-06-11T01:56:24.398Z,16.05
2023-06-11T01:57:26.015Z,16.05
2023-06-11T01:58:27.800Z,16.05
2023-06-11T01:59:29.421Z,16.10
2023-06-11T02:00:31.059Z,16.10
2023-06-11T02:01:32.696Z,16.02
2023-06-11T02:02:34.588Z,16.05
2023-06-11T02:03:36.525Z,16.05
2023-06-11T02:04:38.262Z,16.04
2023-06-11T02:05:40.028Z,16.07
2023-06-11T02:06:41.693Z,16.04
2023-06-11T02:07:43.362Z,16.02
2023-06-11T02:08:44.972Z,16.05
2023-06-11T02:09:46.643Z,16.06
2023-06-11T02:10:48.334Z,16.07
2023-06-11T02:11:49.994Z,16.07
2023-06-11T02:12:51.916Z,16.04
2023-06-11T02:13:53.593Z,16.08
2023-06-11T02:14:55.333Z,16.07
2023-06-11T02:15:57.705Z,16.06
2023-06-11T02:16:59.674Z,16.10
2023-06-11T02:18:09.017Z,16.06
2023-06-11T02:19:10.897Z,16.01
2023-06-11T02:20:12.624Z,16.04
2023-06-11T02:21:15.149Z,16.05
2023-06-11T02:22:17.038Z,16.06
2023-06-11T02:23:18.906Z,16.05
2023-06-11T02:24:20.912Z,16.06
2023-06-11T02:25:23.126Z,16.06
2023-06-11T02:26:26.172Z,16.06
2023-06-11T02:27:27.935Z,16.00
2023-06-11T02:28:29.763Z,15.98
2023-06-11T02:29:31.694Z,15.98
2023-06-11T02:30:33.565Z,15.97
2023-06-11T02:31:35.284Z,15.95
2023-06-11T02:32:37.238Z,15.97
2023-06-11T02:33:39.093Z,15.96
2023-06-11T02:34:40.843Z,15.97
2023-06-11T02:35:42.641Z,15.99
2023-06-11T02:36:44.283Z,15.97
2023-06-11T02:37:45.983Z,15.99
2023-06-11T02:38:47.982Z,15.97
2023-06-11T02:39:49.628Z,15.99
2023-06-11T02:40:51.281Z,15.95
2023-06-11T02:41:53.186Z,15.94
2023-06-11T02:42:54.873Z,15.92
2023-06-11T02:43:56.893Z,15.91
2023-06-11T02:44:58.526Z,15.93
2023-06-11T02:46:00.248Z,15.92
2023-06-11T02:47:01.951Z,15.94
2023-06-11T02:48:04.119Z,15.93
2023-06-11T02:49:06.227Z,15.89
2023-06-11T02:50:08.206Z,15.85
2023-06-11T02:51:10.163Z,15.87
2023-06-11T02:52:11.800Z,15.87
2023-06-11T02:53:13.428Z,15.88
2023-06-11T02:54:15.044Z,15.90
2023-06-11T02:55:18.066Z,15.90
2023-06-11T02:56:19.635Z,15.91
2023-06-11T02:57:21.262Z,15.91
2023-06-11T02:58:22.841Z,15.91
2023-06-11T02:59:24.498Z,15.92
2023-06-11T03:00:26.133Z,15.88
2023-06-11T03:01:27.798Z,15.92
2023-06-11T03:02:29.513Z,15.90
2023-06-11T03:03:31.631Z,15.95
2023-06-11T03:04:34.756Z,15.93
2023-06-11T03:05:36.411Z,15.91
2023-06-11T03:06:38.210Z,15.91
2023-06-11T03:07:40.393Z,15.97
2023-06-11T03:08:43.296Z,15.98
2023-06-11T03:09:44.902Z,15.98
2023-06-11T03:10:46.497Z,15.95
2023-06-11T03:11:48.166Z,15.90
2023-06-11T03:12:49.967Z,15.87
2023-06-11T03:13:51.681Z,15.89
2023-06-11T03:14:54.312Z,15.86
2023-06-11T03:15:56.654Z,15.86
2023-06-11T03:16:59.745Z,15.92
2023-06-11T03:18:01.457Z,15.93
2023-06-11T03:19:03.430Z,15.93
2023-06-11T03:20:06.138Z,15.98
2023-06-11T03:21:07.735Z,16.01
2023-06-11T03:22:09.560Z,16.03
2023-06-11T03:23:11.362Z,16.06
2023-06-11T03:24:15.122Z,16.02
2023-06-11T03:25:16.832Z,16.04
2023-06-11T03:26:18.522Z,16.12
2023-06-11T03:27:20.981Z,16.15
2023-06-11T03:28:22.638Z,16.15
2023-06-11T03:29:24.386Z,16.16
2023-06-11T03:30:30.608Z,16.16
2023-06-11T03:31:32.503Z,16.21
2023-06-11T03:32:34.373Z,16.29
2023-06-11T03:33:35.921Z,16.29
2023-06-11T03:34:38.540Z,16.32
2023-06-11T03:35:40.238Z,16.35
2023-06-11T03:36:53.244Z,16.40
2023-06-11T03:37:54.956Z,16.44
2023-06-11T03:38:59.175Z,16.44
2023-06-11T03:40:01.585Z,16.46
2023-06-11T03:41:04.982Z,16.42
2023-06-11T03:42:08.655Z,16.43
2023-06-11T03:43:10.802Z,16.48
2023-06-11T03:44:14.928Z,16.58
2023-06-11T03:45:16.517Z,16.64
2023-06-11T03:46:18.832Z,16.61
2023-06-11T03:47:20.596Z,16.65
2023-06-11T03:48:23.049Z,16.68
2023-06-11T03:49:24.826Z,16.77
2023-06-11T03:50:26.438Z,16.80
2023-06-11T03:51:28.243Z,16.85
2023-06-11T03:52:29.860Z,16.89
2023-06-11T03:53:31.554Z,16.97
2023-06-11T03:54:33.507Z,16.98
2023-06-11T03:55:36.260Z,16.97
2023-06-11T03:56:38.006Z,16.96
2023-06-11T03:57:39.700Z,17.00
2023-06-11T03:58:41.432Z,17.02
2023-06-11T03:59:43.119Z,17.02
2023-06-11T04:00:44.756Z,17.09
2023-06-11T04:01:46.443Z,17.13
2023-06-11T04:02:48.659Z,17.08
2023-06-11T04:03:52.777Z,16.97
2023-06-11T04:04:54.556Z,16.94
2023-06-11T04:05:56.237Z,16.94
2023-06-11T04:06:57.856Z,16.97
2023-06-11T04:07:59.646Z,16.99
2023-06-11T04:09:01.588Z,16.97
2023-06-11T04:10:04.934Z,16.94
2023-06-11T04:11:09.673Z,16.98
2023-06-11T04:12:11.397Z,16.98
2023-06-11T04:13:13.599Z,16.92
2023-06-11T04:14:15.323Z,16.94
2023-06-11T04:15:16.949Z,16.93
2023-06-11T04:16:19.963Z,16.92
2023-06-11T04:17:22.421Z,16.91
2023-06-11T04:18:24.192Z,16.84
2023-06-11T04:19:27.335Z,16.81
2023-06-11T04:20:29.791Z,16.79
2023-06-11T04:21:31.826Z,16.78
2023-06-11T04:22:33.602Z,16.76
2023-06-11T04:23:35.332Z,16.81
2023-06-11T04:24:37.414Z,16.85
2023-06-11T04:25:39.348Z,16.88
2023-06-11T04:26:43.621Z,16.86
2023-06-11T04:27:49.832Z,16.83
2023-06-11T04:28:52.927Z,16.84
2023-06-11T04:29:56.081Z,16.83
2023-06-11T04:30:58.160Z,16.90
2023-06-11T04:32:00.739Z,16.87
2023-06-11T04:33:02.444Z,16.84
2023-06-11T04:34:04.189Z,16.84
2023-06-11T04:35:10.016Z,16.83
2023-06-11T04:36:15.454Z,16.85
2023-06-11T04:37:18.478Z,16.90
2023-06-11T04:38:20.933Z,16.86
2023-06-11T04:39:22.613Z,16.81
2023-06-11T04:40:24.999Z,16.86
2023-06-11T04:41:27.368Z,16.90
2023-06-11T04:42:29.438Z,16.95
2023-06-11T04:43:31.092Z,16.97
2023-06-11T04:44:32.716Z,16.92
2023-06-11T04:45:34.531Z,16.92
2023-06-11T04:46:37.132Z,16.82
2023-06-11T04:47:41.405Z,16.81
2023-06-11T04:48:43.050Z,16.83
2023-06-11T04:49:44.672Z,16.81
2023-06-11T04:50:46.388Z,16.85
2023-06-11T04:51:48.567Z,16.88
2023-06-11T04:52:51.332Z,16.84
2023-06-11T04:53:53.017Z,16.86
2023-06-11T04:54:55.023Z,16.90
2023-06-11T04:55:58.192Z,16.81
2023-06-11T04:57:00.859Z,16.83
2023-06-11T04:58:03.383Z,16.88
2023-06-11T04:59:05.133Z,16.87
2023-06-11T05:00:07.943Z,16.92
2023-06-11T05:01:10.929Z,16.88
2023-06-11T05:02:12.634Z,16.84
2023-06-11T05:03:17.716Z,16.78
2023-06-11T05:04:19.355Z,16.77
2023-06-11T05:05:22.301Z,16.71
2023-06-11T05:06:24.960Z,16.72
2023-06-11T05:07:26.806Z,16.75
2023-06-11T05:08:29.248Z,16.78
2023-06-11T05:09:32.745Z,16.76
2023-06-11T05:10:34.529Z,16.78
2023-06-11T05:11:36.281Z,16.72
2023-06-11T05:12:38.022Z,16.75
2023-06-11T05:13:39.603Z,16.74
2023-06-11T05:14:43.743Z,16.79
2023-06-11T05:15:45.414Z,16.78
2023-06-11T05:16:47.083Z,16.78
2023-06-11T05:17:52.198Z,16.75
2023-06-11T05:18:54.968Z,16.77
2023-06-11T05:19:56.579Z,16.82
2023-06-11T05:20:58.188Z,16.81
2023-06-11T05:21:59.782Z,16.82
2023-06-11T05:23:02.087Z,16.87
2023-06-11T05:24:06.228Z,16.90
2023-06-11T05:25:08.438Z,16.95
2023-06-11T05:26:10.296Z,16.96
2023-06-11T05:27:15.526Z,16.95
2023-06-11T05:28:18.965Z,17.03
2023-06-11T05:29:24.514Z,17.04
2023-06-11T05:30:26.771Z,17.09
2023-06-11T05:31:29.947Z,17.03
2023-06-11T05:32:32.010Z,17.14
2023-06-11T05:33:35.754Z,17.11
2023-06-11T05:34:37.368Z,17.17
2023-06-11T05:35:44.729Z,17.23
2023-06-11T05:36:46.368Z,17.26
2023-06-11T05:37:49.412Z,17.27
2023-06-11T05:38:51.145Z,17.19
2023-06-11T05:39:53.017Z,17.21
2023-06-11T05:40:56.086Z,17.19
2023-06-11T05:41:57.883Z,17.24
2023-06-11T05:43:00.161Z,17.27
2023-06-11T05:44:01.814Z,17.33
2023-06-11T05:45:05.128Z,17.38
2023-06-11T05:46:07.399Z,17.40
2023-06-11T05:47:09.325Z,17.44
2023-06-11T05:48:11.185Z,17.46
2023-06-11T05:49:13.770Z,17.55
2023-06-11T05:50:15.406Z,17.62
2023-06-11T05:51:17.150Z,17.64
2023-06-11T05:52:18.794Z,17.75
2023-06-11T05:53:20.721Z,17.86
2023-06-11T05:54:22.528Z,17.96
2023-06-11T05:55:24.217Z,18.03
2023-06-11T05:56:25.909Z,18.06
2023-06-11T05:57:29.831Z,18.10
2023-06-11T05:58:34.487Z,18.12
2023-06-11T05:59:38.082Z,18.22
2023-06-11T06:00:39.679Z,18.30
2023-06-11T06:01:41.298Z,18.42
2023-06-11T06:02:43.049Z,18.49
2023-06-11T06:03:50.357Z,18.52
2023-06-11T06:04:52.207Z,18.49
2023-06-11T06:05:54.923Z,18.45
2023-06-11T06:06:57.510Z,18.42
2023-06-11T06:07:59.201Z,18.32
2023-06-11T06:09:00.979Z,18.34
2023-06-11T06:10:03.578Z,18.40
2023-06-11T06:11:06.465Z,18.40
2023-06-11T06:12:08.967Z,18.36
2023-06-11T06:13:10.997Z,18.33
2023-06-11T06:14:13.718Z,18.35
2023-06-11T06:15:16.144Z,18.44
2023-06-11T06:16:18.317Z,18.49
2023-06-11T06:17:20.464Z,18.48
2023-06-11T06:18:22.225Z,18.46
2023-06-11T06:19:23.885Z,18.55
2023-06-11T06:20:26.164Z,18.59
2023-06-11T06:21:28.893Z,18.63
2023-06-11T06:22:30.464Z,18.62
2023-06-11T06:23:32.524Z,18.65
2023-06-11T06:24:38.826Z,18.62
2023-06-11T06:25:41.501Z,18.69
2023-06-11T06:26:45.556Z,18.85
2023-06-11T06:27:47.278Z,19.01
2023-06-11T06:28:49.907Z,19.10
2023-06-11T06:29:51.675Z,19.19
2023-06-11T06:30:53.285Z,19.32
2023-06-11T06:31:56.059Z,19.45
2023-06-11T06:32:58.940Z,19.50
2023-06-11T06:34:02.235Z,19.50
2023-06-11T06:35:08.724Z,19.50
2023-06-11T06:36:11.808Z,19.43
2023-06-11T06:37:15.869Z,19.32
2023-06-11T06:38:20.214Z,19.48
2023-06-11T06:39:23.595Z,19.64
2023-06-11T06:40:25.947Z,19.76
2023-06-11T06:41:28.581Z,19.74
2023-06-11T06:42:36.363Z,19.71
2023-06-11T06:43:39.606Z,19.69
2023-06-11T06:44:47.428Z,19.64
2023-06-11T06:45:49.713Z,19.59
2023-06-11T06:46:58.234Z,19.52
2023-06-11T06:48:00.063Z,19.55
2023-06-11T06:49:02.995Z,19.59
2023-06-11T06:50:04.956Z,19.66
2023-06-11T06:51:07.027Z,19.65
2023-06-11T06:52:09.658Z,19.69
2023-06-11T06:53:11.751Z,19.84
2023-06-11T06:54:13.836Z,19.84
2023-06-11T06:55:16.089Z,19.88
2023-06-11T06:56:19.051Z,19.81
2023-06-11T06:57:21.015Z,19.82
2023-06-11T06:58:22.687Z,19.82
2023-06-11T06:59:24.302Z,19.86
2023-06-11T07:00:25.982Z,19.83
2023-06-11T07:01:27.766Z,19.87
2023-06-11T07:02:30.154Z,19.92
2023-06-11T07:03:32.508Z,20.05
2023-06-11T07:04:34.173Z,20.14
2023-06-11T07:05:35.888Z,20.27
2023-06-11T07:06:38.875Z,20.40
2023-06-11T07:07:43.345Z,20.46
2023-06-11T07:08:45.728Z,20.52
2023-06-11T07:09:47.363Z,20.59
2023-06-11T07:10:51.084Z,20.73
2023-06-11T07:11:56.518Z,20.85
2023-06-11T07:13:00.643Z,20.91
2023-06-11T07:14:02.938Z,20.86
2023-06-11T07:15:05.301Z,20.72
2023-06-11T07:16:07.522Z,20.69
2023-06-11T07:17:10.842Z,20.71
2023-06-11T07:18:12.904Z,20.57
2023-06-11T07:19:15.595Z,20.47
2023-06-11T07:20:17.434Z,20.40
2023-06-11T07:21:19.552Z,20.36
2023-06-11T07:22:22.759Z,20.35
2023-06-11T07:23:24.696Z,20.32
2023-06-11T07:24:26.358Z,20.26
2023-06-11T07:25:28.828Z,20.29
2023-06-11T07:26:30.423Z,20.34
2023-06-11T07:27:32.852Z,20.43
2023-06-11T07:28:34.519Z,20.49
2023-06-11T07:29:36.957Z,20.56
2023-06-11T07:30:38.601Z,20.57
2023-06-11T07:31:41.400Z,20.59
2023-06-11T07:32:43.162Z,20.61
2023-06-11T07:33:44.931Z,20.61
2023-06-11T07:34:46.712Z,20.58
2023-06-11T07:35:48.399Z,20.66
2023-06-11T07:36:50.065Z,20.62
2023-06-11T07:37:52.048Z,20.60
2023-06-11T07:38:54.026Z,20.61
2023-06-11T07:39:55.929Z,20.61
2023-06-11T07:40:58.214Z,20.58
2023-06-11T07:42:00.572Z,20.58
2023-06-11T07:43:02.310Z,20.63
2023-06-11T07:44:06.071Z,20.66
2023-06-11T07:45:08.587Z,20.74
2023-06-11T07:46:11.239Z,20.85
2023-06-11T07:47:13.512Z,20.90
2023-06-11T07:48:16.011Z,20.96
2023-06-11T07:49:17.934Z,21.09
2023-06-11T07:50:19.568Z,21.09
2023-06-11T07:51:22.280Z,21.06
2023-06-11T07:52:30.200Z,21.12
2023-06-11T07:53:38.725Z,21.24
2023-06-11T07:54:41.023Z,21.32
2023-06-11T07:55:42.828Z,21.23
2023-06-11T07:56:44.667Z,21.18
2023-06-11T07:57:46.331Z,21.12
2023-06-11T07:58:48.221Z,21.10
2023-06-11T07:59:50.051Z,21.18
2023-06-11T08:00:51.708Z,21.27
2023-06-11T08:01:53.442Z,21.23
2023-06-11T08:02:55.092Z,21.24
2023-06-11T08:03:57.637Z,21.26
2023-06-11T08:04:59.235Z,21.26
2023-06-11T08:06:00.883Z,21.25
2023-06-11T08:07:02.820Z,21.31
2023-06-11T08:08:04.691Z,21.43
2023-06-11T08:09:06.399Z,21.50
2023-06-11T08:10:08.549Z,21.54
2023-06-11T08:11:10.456Z,21.51
2023-06-11T08:12:12.782Z,21.58
2023-06-11T08:13:14.423Z,21.62
2023-06-11T08:14:16.059Z,21.54
2023-06-11T08:15:17.744Z,21.41
2023-06-11T08:16:19.521Z,21.38
2023-06-11T08:17:21.310Z,21.45
2023-06-11T08:18:23.121Z,21.54
2023-06-11T08:19:24.873Z,21.53
2023-06-11T08:20:26.537Z,21.60
2023-06-11T08:21:28.143Z,21.61
2023-06-11T08:22:29.759Z,21.60
2023-06-11T08:23:31.541Z,21.48
2023-06-11T08:24:33.181Z,21.37
2023-06-11T08:25:34.975Z,21.26
2023-06-11T08:26:36.582Z,21.23
2023-06-11T08:27:38.342Z,21.25
2023-06-11T08:28:40.240Z,21.27
2023-06-11T08:29:41.877Z,21.35
2023-06-11T08:30:43.497Z,21.53
2023-06-11T08:31:45.128Z,21.57
2023-06-11T08:32:46.857Z,21.62
2023-06-11T08:33:48.549Z,21.68
2023-06-11T08:34:50.100Z,21.77
2023-06-11T08:35:51.689Z,21.84
2023-06-11T08:36:53.356Z,21.98
2023-06-11T08:37:55.020Z,22.14
2023-06-11T08:38:56.641Z,22.25
2023-06-11T08:39:58.233Z,22.18
2023-06-11T08:40:59.824Z,22.16
2023-06-11T08:42:01.618Z,22.22
2023-06-11T08:43:03.257Z,22.21
2023-06-11T08:44:05.133Z,22.09
2023-06-11T08:45:07.327Z,21.92
2023-06-11T08:46:16.451Z,21.87
2023-06-11T08:47:21.711Z,21.78
2023-06-11T08:48:25.153Z,21.71
2023-06-11T08:49:26.913Z,21.69
2023-06-11T08:50:31.025Z,21.76
2023-06-11T08:51:37.559Z,21.79
2023-06-11T08:52:41.771Z,21.77
2023-06-11T08:53:43.759Z,21.78
2023-06-11T08:54:45.459Z,21.77
2023-06-11T08:55:47.144Z,21.75
2023-06-11T08:56:49.567Z,21.69
2023-06-11T08:57:51.247Z,21.62
2023-06-11T08:58:54.151Z,21.55
2023-06-11T08:59:56.092Z,21.51
2023-06-11T09:00:57.870Z,21.50
2023-06-11T09:01:59.498Z,21.55
2023-06-11T09:03:02.680Z,21.62
2023-06-11T09:04:04.790Z,21.77
2023-06-11T09:05:06.805Z,21.93
2023-06-11T09:06:08.552Z,21.92
2023-06-11T09:07:10.902Z,22.03
2023-06-11T09:08:12.511Z,22.15
2023-06-11T09:09:14.073Z,22.26
2023-06-11T09:10:16.224Z,22.36
2023-06-11T09:11:17.809Z,22.55
2023-06-11T09:12:19.388Z,22.59
2023-06-11T09:13:26.199Z,22.56
2023-06-11T09:14:27.895Z,22.49
2023-06-11T09:15:29.588Z,22.45
2023-06-11T09:16:39.682Z,22.26
2023-06-11T09:17:44.320Z,22.18
2023-06-11T09:18:45.942Z,22.14
2023-06-11T09:19:47.551Z,22.01
2023-06-11T09:20:53.398Z,21.99
2023-06-11T09:21:57.084Z,21.93
2023-06-11T09:22:58.739Z,21.89
2023-06-11T09:24:08.309Z,21.94
2023-06-11T09:25:11.862Z,21.98
2023-06-11T09:26:17.847Z,21.96
2023-06-11T09:27:22.268Z,21.90
2023-06-11T09:28:35.391Z,21.93
2023-06-11T09:29:37.027Z,21.97
2023-06-11T09:30:38.706Z,22.01
2023-06-11T09:31:40.348Z,22.06
2023-06-11T09:32:43.251Z,22.11
2023-06-11T09:33:45.261Z,22.21
2023-06-11T09:34:47.014Z,22.37
2023-06-11T09:35:48.630Z,22.43
2023-06-11T09:36:50.300Z,22.56
2023-06-11T09:37:53.365Z,22.68
2023-06-11T09:38:55.728Z,22.62
2023-06-11T09:39:57.419Z,22.65
2023-06-11T09:40:59.122Z,22.67
2023-06-11T09:42:00.763Z,22.59
2023-06-11T09:43:06.822Z,22.59
2023-06-11T09:44:09.135Z,22.56
2023-06-11T09:45:21.358Z,22.59
2023-06-11T09:46:24.355Z,22.73
2023-06-11T09:47:27.833Z,22.91
2023-06-11T09:48:30.874Z,22.99
2023-06-11T09:49:33.036Z,23.06
2023-06-11T09:50:34.861Z,23.05
2023-06-11T09:51:36.780Z,23.04
2023-06-11T09:52:38.816Z,23.17
2023-06-11T09:53:42.284Z,23.25
2023-06-11T09:54:44.010Z,23.32
2023-06-11T09:55:57.125Z,23.46
2023-06-11T09:57:09.957Z,23.47
2023-06-11T09:58:13.501Z,23.54
2023-06-11T09:59:18.095Z,23.60
2023-06-11T10:00:19.837Z,23.61
2023-06-11T10:01:21.599Z,23.53
2023-06-11T10:02:23.297Z,23.52
2023-06-11T10:03:25.545Z,23.48
2023-06-11T10:04:27.233Z,23.35
2023-06-11T10:05:29.367Z,23.31
2023-06-11T10:06:35.664Z,23.14
2023-06-11T10:07:48.436Z,23.12
2023-06-11T10:08:53.559Z,23.25
2023-06-11T10:09:56.010Z,23.38
2023-06-11T10:11:03.160Z,23.41
2023-06-11T10:12:06.592Z,23.33
2023-06-11T10:13:08.804Z,23.29
2023-06-11T10:14:15.236Z,23.27
2023-06-11T10:15:17.619Z,23.27
2023-06-11T10:16:21.578Z,23.24
2023-06-11T10:17:23.440Z,23.29
2023-06-11T10:18:25.747Z,23.43
2023-06-11T10:19:35.546Z,23.48
2023-06-11T10:20:37.523Z,23.51
2023-06-11T10:21:46.801Z,23.44
2023-06-11T10:22:48.431Z,23.42
2023-06-11T10:23:55.416Z,23.38
2023-06-11T10:25:01.839Z,23.32
2023-06-11T10:26:03.946Z,23.22
2023-06-11T10:27:06.748Z,23.04
2023-06-11T10:28:09.662Z,22.99
2023-06-11T10:29:11.484Z,22.92
2023-06-11T10:30:23.788Z,22.92
2023-06-11T10:31:30.646Z,22.98
2023-06-11T10:32:33.201Z,23.08
2023-06-11T10:33:43.235Z,23.25
2023-06-11T10:34:46.048Z,23.37
2023-06-11T10:35:48.129Z,23.52
2023-06-11T10:36:49.852Z,23.57
2023-06-11T10:38:01.389Z,23.62
2023-06-11T10:39:23.510Z,23.65
2023-06-11T10:40:32.707Z,23.64
2023-06-11T10:41:38.137Z,23.61
2023-06-11T10:42:42.082Z,23.60
2023-06-11T10:43:48.094Z,23.60
2023-06-11T10:44:49.770Z,23.63
2023-06-11T10:46:05.576Z,23.69
2023-06-11T10:47:07.590Z,23.76
2023-06-11T10:48:09.732Z,23.90
2023-06-11T10:49:14.634Z,24.07
2023-06-11T10:50:26.857Z,24.28
2023-06-11T10:51:40.316Z,24.48
2023-06-11T10:52:53.375Z,24.60
2023-06-11T10:54:00.654Z,24.65
2023-06-11T10:55:02.924Z,24.54
2023-06-11T10:56:04.758Z,24.44
2023-06-11T10:57:07.099Z,24.23
2023-06-11T10:58:09.291Z,24.03
2023-06-11T10:59:10.860Z,23.91
2023-06-11T11:00:13.447Z,23.91
2023-06-11T11:01:15.250Z,23.99
2023-06-11T11:02:17.428Z,24.12
2023-06-11T11:03:20.749Z,24.19
2023-06-11T11:04:22.872Z,24.28
2023-06-11T11:05:26.436Z,24.32
2023-06-11T11:06:28.597Z,24.34
2023-06-11T11:07:30.487Z,24.41
2023-06-11T11:08:32.219Z,24.46
2023-06-11T11:09:33.810Z,24.44
2023-06-11T11:10:35.445Z,24.51
2023-06-11T11:11:38.814Z,24.60
2023-06-11T11:12:42.656Z,24.67
2023-06-11T11:13:46.578Z,24.76
2023-06-11T11:14:48.221Z,24.80
2023-06-11T11:15:51.347Z,24.89
2023-06-11T11:16:53.072Z,24.88
2023-06-11T11:17:56.335Z,24.82
2023-06-11T11:18:58.042Z,24.71
2023-06-11T11:19:59.758Z,24.61
2023-06-11T11:21:01.365Z,24.44
2023-06-11T11:22:03.068Z,24.26
2023-06-11T11:23:06.904Z,24.18
2023-06-11T11:24:11.611Z,24.09
2023-06-11T11:25:13.724Z,24.07
2023-06-11T11:26:18.273Z,23.99
2023-06-11T11:27:23.382Z,24.05
2023-06-11T11:28:25.539Z,24.08
2023-06-11T11:29:27.133Z,24.04
2023-06-11T11:30:30.336Z,23.93
2023-06-11T11:31:32.086Z,23.89
2023-06-11T11:32:35.248Z,23.88
2023-06-11T11:33:37.051Z,23.80
2023-06-11T11:34:41.073Z,23.76
2023-06-11T11:35:46.835Z,23.81
2023-06-11T11:36:48.472Z,23.80
2023-06-11T11:37:50.563Z,23.78
2023-06-11T11:38:52.298Z,23.86
2023-06-11T11:39:54.074Z,23.98
2023-06-11T11:40:56.964Z,24.03
2023-06-11T11:42:00.067Z,23.94
2023-06-11T11:43:03.684Z,23.98
2023-06-11T11:44:06.144Z,24.14
2023-06-11T11:45:13.089Z,24.23
2023-06-11T11:46:19.503Z,24.41
2023-06-11T11:47:22.934Z,24.51
2023-06-11T11:48:25.744Z,24.64
2023-06-11T11:49:33.317Z,24.74
2023-06-11T11:50:35.362Z,24.79
2023-06-11T11:51:41.158Z,24.87
2023-06-11T11:52:42.762Z,24.85
2023-06-11T11:53:44.443Z,24.96
2023-06-11T11:54:46.128Z,25.10
2023-06-11T11:56:01.020Z,25.08
2023-06-11T11:57:09.479Z,25.21
2023-06-11T11:58:13.022Z,25.36
2023-06-11T11:59:40.434Z,25.40
2023-06-11T12:00:51.281Z,25.25
2023-06-11T12:01:59.918Z,25.16
2023-06-11T12:03:11.832Z,24.93
2023-06-11T12:04:13.535Z,24.87
2023-06-11T12:05:15.225Z,24.83
2023-06-11T12:06:24.163Z,24.91
2023-06-11T12:07:25.985Z,25.02
2023-06-11T12:08:29.080Z,25.08
2023-06-11T12:09:30.663Z,25.24
2023-06-11T12:10:32.563Z,25.39
2023-06-11T12:11:34.198Z,25.35
2023-06-11T12:12:35.822Z,25.38
2023-06-11T12:13:37.406Z,25.37
2023-06-11T12:14:39.237Z,25.30
2023-06-11T12:15:40.891Z,25.26
2023-06-11T12:16:48.867Z,25.23
2023-06-11T12:17:50.464Z,25.08
2023-06-11T12:18:52.878Z,24.97
2023-06-11T12:19:54.479Z,24.87
2023-06-11T12:20:56.163Z,24.76
2023-06-11T12:21:57.785Z,24.82
2023-06-11T12:22:59.408Z,24.81
2023-06-11T12:24:01.038Z,24.67
2023-06-11T12:25:02.817Z,24.74
2023-06-11T12:26:04.788Z,24.82
2023-06-11T12:27:09.475Z,24.91
2023-06-11T12:28:12.984Z,24.94
2023-06-11T12:29:14.917Z,25.03
2023-06-11T12:30:16.605Z,25.16
2023-06-11T12:31:18.212Z,25.11
2023-06-11T12:32:22.029Z,25.09
2023-06-11T12:33:25.302Z,25.11
2023-06-11T12:34:26.886Z,25.17
2023-06-11T12:35:29.638Z,25.09
2023-06-11T12:36:31.607Z,25.06
2023-06-11T12:37:33.227Z,24.86
2023-06-11T12:38:35.798Z,24.68
2023-06-11T12:39:38.939Z,24.45
2023-06-11T12:40:40.522Z,24.33
2023-06-11T12:41:42.230Z,24.23
2023-06-11T12:42:44.149Z,24.19
2023-06-11T12:43:45.720Z,24.19
2023-06-11T12:44:50.415Z,24.23
2023-06-11T12:45:52.079Z,24.38
2023-06-11T12:46:53.781Z,24.45
2023-06-11T12:47:56.046Z,24.45
2023-06-11T12:48:58.117Z,24.48
2023-06-11T12:49:59.942Z,24.53
2023-06-11T12:51:01.559Z,24.62
2023-06-11T12:52:03.236Z,24.73
2023-06-11T12:53:04.868Z,24.84
2023-06-11T12:54:06.499Z,24.98
2023-06-11T12:55:08.569Z,24.96
2023-06-11T12:56:10.167Z,24.89
2023-06-11T12:57:11.878Z,24.80
2023-06-11T12:58:13.491Z,24.71
2023-06-11T12:59:15.074Z,24.58
2023-06-11T13:00:17.176Z,24.42
2023-06-11T13:01:18.968Z,24.36
2023-06-11T13:02:20.655Z,24.27
2023-06-11T13:03:22.242Z,24.12
2023-06-11T13:04:25.069Z,24.04
2023-06-11T13:05:26.685Z,24.00
2023-06-11T13:06:28.305Z,24.11
2023-06-11T13:07:29.891Z,24.21
2023-06-11T13:08:31.517Z,24.26
2023-06-11T13:09:33.283Z,24.33
2023-06-11T13:10:34.877Z,24.28
2023-06-11T13:11:37.211Z,24.39
2023-06-11T13:12:39.127Z,24.44
2023-06-11T13:13:40.704Z,24.50
2023-06-11T13:14:42.482Z,24.55
2023-06-11T13:15:44.292Z,24.63
2023-06-11T13:16:45.905Z,24.74
2023-06-11T13:17:47.714Z,24.71
2023-06-11T13:18:49.344Z,24.84
2023-06-11T13:19:53.480Z,24.90
2023-06-11T13:20:55.121Z,25.02
2023-06-11T13:21:56.808Z,25.14
2023-06-11T13:22:58.461Z,25.21
2023-06-11T13:24:00.274Z,25.23
2023-06-11T13:25:01.872Z,25.31
2023-06-11T13:26:03.479Z,25.43
2023-06-11T13:27:05.894Z,25.57
2023-06-11T13:28:07.472Z,25.50
2023-06-11T13:29:09.255Z,25.54
2023-06-11T13:30:11.703Z,25.42
2023-06-11T13:31:13.553Z,25.31